sensor_id;sensor_type;location;lat;lon;timestamp;P1;durP1;ratioP1;P2;durP2;ratioP2
59300;SDS011;45073;52.740;6.784;2023-09-12T00:00:55;39.95;;;36.05;;
59300;SDS011;45073;52.740;6.784;2023-09-12T00:03:22;40.97;;;36.78;;
59300;SDS011;45073;52.740;6.784;2023-09-12T00:05:54;41.72;;;37.58;;
59300;SDS011;45073;52.740;6.784;2023-09-12T00:08:21;42.65;;;38.55;;
59300;SDS011;45073;52.740;6.784;2023-09-12T00:10:47;42.45;;;38.45;;
59300;SDS011;45073;52.740;6.784;2023-09-12T00:13:23;44.42;;;39.92;;
59300;SDS011;45073;52.740;6.784;2023-09-12T00:15:48;42.05;;;37.95;;
59300;SDS011;45073;52.740;6.784;2023-09-12T00:18:14;40.00;;;36.20;;
59300;SDS011;45073;52.740;6.784;2023-09-12T00:20:39;42.53;;;38.22;;
59300;SDS011;45073;52.740;6.784;2023-09-12T00:23:05;41.67;;;37.83;;
59300;SDS011;45073;52.740;6.784;2023-09-12T00:25:30;42.47;;;38.47;;
59300;SDS011;45073;52.740;6.784;2023-09-12T00:27:56;41.72;;;37.83;;
59300;SDS011;45073;52.740;6.784;2023-09-12T00:30:22;41.95;;;37.85;;
59300;SDS011;45073;52.740;6.784;2023-09-12T00:32:47;42.88;;;38.67;;
59300;SDS011;45073;52.740;6.784;2023-09-12T00:35:13;43.20;;;38.95;;
59300;SDS011;45073;52.740;6.784;2023-09-12T00:37:39;45.05;;;40.55;;
59300;SDS011;45073;52.740;6.784;2023-09-12T00:40:04;46.40;;;41.83;;
59300;SDS011;45073;52.740;6.784;2023-09-12T00:42:30;44.42;;;40.13;;
59300;SDS011;45073;52.740;6.784;2023-09-12T00:44:56;44.95;;;40.40;;
59300;SDS011;45073;52.740;6.784;2023-09-12T00:47:21;48.28;;;43.50;;
59300;SDS011;45073;52.740;6.784;2023-09-12T00:49:48;44.08;;;39.78;;
59300;SDS011;45073;52.740;6.784;2023-09-12T00:52:15;42.50;;;38.35;;
59300;SDS011;45073;52.740;6.784;2023-09-12T00:54:42;46.60;;;41.90;;
59300;SDS011;45073;52.740;6.784;2023-09-12T00:57:07;43.17;;;38.85;;
59300;SDS011;45073;52.740;6.784;2023-09-12T00:59:33;46.85;;;42.03;;
59300;SDS011;45073;52.740;6.784;2023-09-12T01:01:59;49.60;;;44.60;;
59300;SDS011;45073;52.740;6.784;2023-09-12T01:04:26;45.55;;;41.22;;
59300;SDS011;45073;52.740;6.784;2023-09-12T01:06:52;42.65;;;38.20;;
59300;SDS011;45073;52.740;6.784;2023-09-12T01:09:18;42.80;;;38.70;;
59300;SDS011;45073;52.740;6.784;2023-09-12T01:11:43;42.60;;;38.45;;
59300;SDS011;45073;52.740;6.784;2023-09-12T01:14:09;44.47;;;40.15;;
59300;SDS011;45073;52.740;6.784;2023-09-12T01:16:35;41.50;;;37.20;;
59300;SDS011;45073;52.740;6.784;2023-09-12T01:19:01;41.75;;;37.53;;
59300;SDS011;45073;52.740;6.784;2023-09-12T01:21:36;47.15;;;39.88;;
59300;SDS011;45073;52.740;6.784;2023-09-12T01:28:01;42.30;;;38.28;;
59300;SDS011;45073;52.740;6.784;2023-09-12T01:30:10;42.13;;;38.27;;
59300;SDS011;45073;52.740;6.784;2023-09-12T01:32:36;40.70;;;36.90;;
59300;SDS011;45073;52.740;6.784;2023-09-12T01:35:03;34.97;;;31.70;;
59300;SDS011;45073;52.740;6.784;2023-09-12T01:37:30;35.72;;;32.15;;
59300;SDS011;45073;52.740;6.784;2023-09-12T01:39:56;40.45;;;36.55;;
59300;SDS011;45073;52.740;6.784;2023-09-12T01:42:22;41.40;;;37.50;;
59300;SDS011;45073;52.740;6.784;2023-09-12T01:44:54;46.65;;;42.10;;
59300;SDS011;45073;52.740;6.784;2023-09-12T01:47:21;42.92;;;38.67;;
59300;SDS011;45073;52.740;6.784;2023-09-12T01:49:49;40.70;;;36.83;;
59300;SDS011;45073;52.740;6.784;2023-09-12T01:52:19;43.67;;;39.53;;
59300;SDS011;45073;52.740;6.784;2023-09-12T01:54:45;42.83;;;38.83;;
59300;SDS011;45073;52.740;6.784;2023-09-12T01:57:12;47.10;;;42.33;;
59300;SDS011;45073;52.740;6.784;2023-09-12T01:59:39;69.20;;;42.33;;
59300;SDS011;45073;52.740;6.784;2023-09-12T02:02:05;67.28;;;39.63;;
59300;SDS011;45073;52.740;6.784;2023-09-12T02:04:32;93.22;;;33.65;;
59300;SDS011;45073;52.740;6.784;2023-09-12T02:06:57;36.30;;;32.70;;
59300;SDS011;45073;52.740;6.784;2023-09-12T02:09:23;37.50;;;33.92;;
59300;SDS011;45073;52.740;6.784;2023-09-12T02:11:50;38.42;;;34.92;;
59300;SDS011;45073;52.740;6.784;2023-09-12T02:14:16;33.95;;;30.85;;
59300;SDS011;45073;52.740;6.784;2023-09-12T02:16:45;34.85;;;31.58;;
59300;SDS011;45073;52.740;6.784;2023-09-12T02:19:10;36.03;;;32.67;;
59300;SDS011;45073;52.740;6.784;2023-09-12T02:21:36;39.72;;;35.95;;
59300;SDS011;45073;52.740;6.784;2023-09-12T02:24:02;40.13;;;36.55;;
59300;SDS011;45073;52.740;6.784;2023-09-12T02:26:27;43.55;;;37.33;;
59300;SDS011;45073;52.740;6.784;2023-09-12T02:28:53;40.88;;;36.92;;
59300;SDS011;45073;52.740;6.784;2023-09-12T02:31:18;41.10;;;37.30;;
59300;SDS011;45073;52.740;6.784;2023-09-12T02:33:44;40.20;;;36.38;;
59300;SDS011;45073;52.740;6.784;2023-09-12T02:36:10;43.05;;;39.05;;
59300;SDS011;45073;52.740;6.784;2023-09-12T02:38:35;44.00;;;39.75;;
59300;SDS011;45073;52.740;6.784;2023-09-12T02:41:01;40.05;;;36.15;;
59300;SDS011;45073;52.740;6.784;2023-09-12T02:43:27;42.72;;;38.97;;
59300;SDS011;45073;52.740;6.784;2023-09-12T02:45:53;42.53;;;38.72;;
59300;SDS011;45073;52.740;6.784;2023-09-12T02:48:19;38.45;;;34.90;;
59300;SDS011;45073;52.740;6.784;2023-09-12T02:50:45;36.92;;;33.53;;
59300;SDS011;45073;52.740;6.784;2023-09-12T02:53:10;31.90;;;29.00;;
59300;SDS011;45073;52.740;6.784;2023-09-12T02:55:39;30.17;;;27.35;;
59300;SDS011;45073;52.740;6.784;2023-09-12T02:58:05;27.15;;;24.55;;
59300;SDS011;45073;52.740;6.784;2023-09-12T03:00:31;28.50;;;25.65;;
59300;SDS011;45073;52.740;6.784;2023-09-12T03:02:57;28.42;;;25.55;;
59300;SDS011;45073;52.740;6.784;2023-09-12T03:05:22;27.65;;;24.85;;
59300;SDS011;45073;52.740;6.784;2023-09-12T03:07:48;28.55;;;25.60;;
59300;SDS011;45073;52.740;6.784;2023-09-12T03:10:14;28.63;;;25.58;;
59300;SDS011;45073;52.740;6.784;2023-09-12T03:12:39;31.25;;;27.80;;
59300;SDS011;45073;52.740;6.784;2023-09-12T03:15:05;84.30;;;29.58;;
59300;SDS011;45073;52.740;6.784;2023-09-12T03:17:31;55.40;;;29.63;;
59300;SDS011;45073;52.740;6.784;2023-09-12T03:19:57;30.33;;;27.42;;
59300;SDS011;45073;52.740;6.784;2023-09-12T03:22:26;28.25;;;25.58;;
59300;SDS011;45073;52.740;6.784;2023-09-12T03:24:51;35.58;;;31.83;;
59300;SDS011;45073;52.740;6.784;2023-09-12T03:27:17;172.27;;;39.50;;
59300;SDS011;45073;52.740;6.784;2023-09-12T03:29:46;126.32;;;42.22;;
59300;SDS011;45073;52.740;6.784;2023-09-12T03:32:12;101.53;;;37.55;;
59300;SDS011;45073;52.740;6.784;2023-09-12T03:34:37;107.82;;;37.53;;
59300;SDS011;45073;52.740;6.784;2023-09-12T03:37:03;169.55;;;40.47;;
59300;SDS011;45073;52.740;6.784;2023-09-12T03:39:29;151.38;;;37.40;;
59300;SDS011;45073;52.740;6.784;2023-09-12T03:41:54;149.90;;;45.63;;
59300;SDS011;45073;52.740;6.784;2023-09-12T03:44:20;64.93;;;35.90;;
59300;SDS011;45073;52.740;6.784;2023-09-12T03:46:45;97.93;;;41.15;;
59300;SDS011;45073;52.740;6.784;2023-09-12T03:49:11;99.30;;;40.05;;
59300;SDS011;45073;52.740;6.784;2023-09-12T03:51:36;105.80;;;39.70;;
59300;SDS011;45073;52.740;6.784;2023-09-12T03:54:03;130.32;;;41.35;;
59300;SDS011;45073;52.740;6.784;2023-09-12T03:56:28;72.30;;;40.33;;
59300;SDS011;45073;52.740;6.784;2023-09-12T03:58:54;74.90;;;40.80;;
59300;SDS011;45073;52.740;6.784;2023-09-12T04:01:22;113.18;;;45.40;;
59300;SDS011;45073;52.740;6.784;2023-09-12T04:03:48;72.40;;;40.30;;
59300;SDS011;45073;52.740;6.784;2023-09-12T04:06:14;137.02;;;44.65;;
59300;SDS011;45073;52.740;6.784;2023-09-12T04:08:39;104.80;;;43.90;;
59300;SDS011;45073;52.740;6.784;2023-09-12T04:11:05;110.93;;;41.40;;
59300;SDS011;45073;52.740;6.784;2023-09-12T04:13:30;188.00;;;46.33;;
59300;SDS011;45073;52.740;6.784;2023-09-12T04:15:56;145.88;;;45.38;;
59300;SDS011;45073;52.740;6.784;2023-09-12T04:18:21;87.53;;;40.65;;
59300;SDS011;45073;52.740;6.784;2023-09-12T04:20:47;72.78;;;41.40;;
59300;SDS011;45073;52.740;6.784;2023-09-12T04:23:13;45.65;;;41.10;;
59300;SDS011;45073;52.740;6.784;2023-09-12T04:25:41;52.35;;;42.47;;
59300;SDS011;45073;52.740;6.784;2023-09-12T04:28:07;42.95;;;39.17;;
59300;SDS011;45073;52.740;6.784;2023-09-12T04:30:33;36.90;;;23.55;;
59300;SDS011;45073;52.740;6.784;2023-09-12T04:33:00;61.22;;;42.45;;
59300;SDS011;45073;52.740;6.784;2023-09-12T04:35:26;43.70;;;39.35;;
59300;SDS011;45073;52.740;6.784;2023-09-12T04:37:51;54.50;;;43.83;;
59300;SDS011;45073;52.740;6.784;2023-09-12T04:40:17;47.05;;;42.22;;
59300;SDS011;45073;52.740;6.784;2023-09-12T04:42:43;84.40;;;42.63;;
59300;SDS011;45073;52.740;6.784;2023-09-12T04:45:08;153.63;;;46.20;;
59300;SDS011;45073;52.740;6.784;2023-09-12T04:47:34;118.97;;;47.03;;
59300;SDS011;45073;52.740;6.784;2023-09-12T04:50:00;74.05;;;41.05;;
59300;SDS011;45073;52.740;6.784;2023-09-12T04:52:26;104.82;;;43.70;;
59300;SDS011;45073;52.740;6.784;2023-09-12T04:54:52;54.38;;;39.85;;
59300;SDS011;45073;52.740;6.784;2023-09-12T04:57:18;48.95;;;42.22;;
59300;SDS011;45073;52.740;6.784;2023-09-12T04:59:43;43.97;;;39.33;;
59300;SDS011;45073;52.740;6.784;2023-09-12T05:02:09;44.40;;;39.58;;
59300;SDS011;45073;52.740;6.784;2023-09-12T05:04:34;49.17;;;39.75;;
59300;SDS011;45073;52.740;6.784;2023-09-12T05:07:00;103.35;;;44.67;;
59300;SDS011;45073;52.740;6.784;2023-09-12T05:09:26;47.67;;;40.10;;
59300;SDS011;45073;52.740;6.784;2023-09-12T05:11:51;90.85;;;41.40;;
59300;SDS011;45073;52.740;6.784;2023-09-12T05:14:17;43.83;;;39.35;;
59300;SDS011;45073;52.740;6.784;2023-09-12T05:16:42;48.38;;;38.13;;
59300;SDS011;45073;52.740;6.784;2023-09-12T05:19:08;45.40;;;40.72;;
59300;SDS011;45073;52.740;6.784;2023-09-12T05:21:33;47.75;;;40.95;;
59300;SDS011;45073;52.740;6.784;2023-09-12T05:23:59;45.65;;;40.90;;
59300;SDS011;45073;52.740;6.784;2023-09-12T05:26:24;45.08;;;40.47;;
59300;SDS011;45073;52.740;6.784;2023-09-12T05:28:50;43.20;;;39.00;;
59300;SDS011;45073;52.740;6.784;2023-09-12T05:31:16;45.22;;;40.30;;
59300;SDS011;45073;52.740;6.784;2023-09-12T05:33:41;44.20;;;39.65;;
59300;SDS011;45073;52.740;6.784;2023-09-12T05:36:07;43.40;;;38.95;;
59300;SDS011;45073;52.740;6.784;2023-09-12T05:38:32;43.00;;;38.58;;
59300;SDS011;45073;52.740;6.784;2023-09-12T05:40:58;59.38;;;41.10;;
59300;SDS011;45073;52.740;6.784;2023-09-12T05:43:24;44.83;;;39.97;;
59300;SDS011;45073;52.740;6.784;2023-09-12T05:45:49;47.80;;;39.78;;
59300;SDS011;45073;52.740;6.784;2023-09-12T05:48:15;45.92;;;40.85;;
59300;SDS011;45073;52.740;6.784;2023-09-12T05:50:40;53.25;;;44.00;;
59300;SDS011;45073;52.740;6.784;2023-09-12T05:53:07;44.97;;;40.17;;
59300;SDS011;45073;52.740;6.784;2023-09-12T05:55:33;47.25;;;42.17;;
59300;SDS011;45073;52.740;6.784;2023-09-12T05:57:58;44.65;;;39.95;;
59300;SDS011;45073;52.740;6.784;2023-09-12T06:00:24;51.45;;;44.55;;
59300;SDS011;45073;52.740;6.784;2023-09-12T06:02:50;44.40;;;39.83;;
59300;SDS011;45073;52.740;6.784;2023-09-12T06:05:16;45.35;;;40.67;;
59300;SDS011;45073;52.740;6.784;2023-09-12T06:07:42;46.72;;;41.83;;
59300;SDS011;45073;52.740;6.784;2023-09-12T06:10:07;46.00;;;41.38;;
59300;SDS011;45073;52.740;6.784;2023-09-12T06:12:34;49.67;;;41.20;;
59300;SDS011;45073;52.740;6.784;2023-09-12T06:15:01;52.60;;;43.95;;
59300;SDS011;45073;52.740;6.784;2023-09-12T06:17:29;50.03;;;44.70;;
59300;SDS011;45073;52.740;6.784;2023-09-12T06:19:54;48.25;;;43.08;;
59300;SDS011;45073;52.740;6.784;2023-09-12T06:22:20;50.47;;;44.10;;
59300;SDS011;45073;52.740;6.784;2023-09-12T06:24:47;53.90;;;46.17;;
59300;SDS011;45073;52.740;6.784;2023-09-12T06:27:14;51.42;;;45.65;;
59300;SDS011;45073;52.740;6.784;2023-09-12T06:29:44;49.80;;;44.13;;
59300;SDS011;45073;52.740;6.784;2023-09-12T06:32:11;52.95;;;46.88;;
59300;SDS011;45073;52.740;6.784;2023-09-12T06:34:36;53.65;;;45.88;;
59300;SDS011;45073;52.740;6.784;2023-09-12T06:37:02;56.42;;;47.78;;
59300;SDS011;45073;52.740;6.784;2023-09-12T06:39:27;54.47;;;46.70;;
59300;SDS011;45073;52.740;6.784;2023-09-12T06:41:53;55.35;;;49.30;;
59300;SDS011;45073;52.740;6.784;2023-09-12T06:44:18;56.78;;;49.20;;
59300;SDS011;45073;52.740;6.784;2023-09-12T06:46:44;40.42;;;22.42;;
59300;SDS011;45073;52.740;6.784;2023-09-12T06:49:10;53.10;;;47.35;;
59300;SDS011;45073;52.740;6.784;2023-09-12T06:51:35;59.13;;;49.83;;
59300;SDS011;45073;52.740;6.784;2023-09-12T06:54:01;54.47;;;47.00;;
59300;SDS011;45073;52.740;6.784;2023-09-12T06:56:27;53.70;;;47.78;;
59300;SDS011;45073;52.740;6.784;2023-09-12T06:58:53;59.58;;;50.90;;
59300;SDS011;45073;52.740;6.784;2023-09-12T07:01:20;60.95;;;51.10;;
59300;SDS011;45073;52.740;6.784;2023-09-12T07:03:46;61.13;;;52.45;;
59300;SDS011;45073;52.740;6.784;2023-09-12T07:06:11;63.05;;;51.90;;
59300;SDS011;45073;52.740;6.784;2023-09-12T07:08:37;60.90;;;50.75;;
59300;SDS011;45073;52.740;6.784;2023-09-12T07:11:03;61.42;;;51.72;;
59300;SDS011;45073;52.740;6.784;2023-09-12T07:13:31;57.22;;;50.25;;
59300;SDS011;45073;52.740;6.784;2023-09-12T07:15:58;53.28;;;47.30;;
59300;SDS011;45073;52.740;6.784;2023-09-12T07:18:23;53.72;;;46.92;;
59300;SDS011;45073;52.740;6.784;2023-09-12T07:20:59;52.17;;;46.47;;
59300;SDS011;45073;52.740;6.784;2023-09-12T07:23:25;55.25;;;47.25;;
59300;SDS011;45073;52.740;6.784;2023-09-12T07:25:51;53.08;;;44.67;;
59300;SDS011;45073;52.740;6.784;2023-09-12T07:28:18;56.78;;;46.85;;
59300;SDS011;45073;52.740;6.784;2023-09-12T07:30:47;53.63;;;45.20;;
59300;SDS011;45073;52.740;6.784;2023-09-12T07:33:13;53.83;;;45.20;;
59300;SDS011;45073;52.740;6.784;2023-09-12T07:35:39;54.28;;;45.67;;
59300;SDS011;45073;52.740;6.784;2023-09-12T07:38:04;51.20;;;44.20;;
59300;SDS011;45073;52.740;6.784;2023-09-12T07:40:30;52.03;;;45.45;;
59300;SDS011;45073;52.740;6.784;2023-09-12T07:42:56;52.35;;;45.00;;
59300;SDS011;45073;52.740;6.784;2023-09-12T07:45:21;51.95;;;42.80;;
59300;SDS011;45073;52.740;6.784;2023-09-12T07:47:47;52.47;;;44.58;;
59300;SDS011;45073;52.740;6.784;2023-09-12T07:50:13;38.70;;;23.25;;
59300;SDS011;45073;52.740;6.784;2023-09-12T07:52:39;48.70;;;43.28;;
59300;SDS011;45073;52.740;6.784;2023-09-12T07:55:06;48.10;;;42.60;;
59300;SDS011;45073;52.740;6.784;2023-09-12T07:57:33;47.53;;;41.88;;
59300;SDS011;45073;52.740;6.784;2023-09-12T07:59:59;48.95;;;42.92;;
59300;SDS011;45073;52.740;6.784;2023-09-12T08:02:25;50.72;;;44.47;;
59300;SDS011;45073;52.740;6.784;2023-09-12T08:04:51;50.28;;;43.53;;
59300;SDS011;45073;52.740;6.784;2023-09-12T08:07:18;51.25;;;45.75;;
59300;SDS011;45073;52.740;6.784;2023-09-12T08:12:20;55.45;;;47.60;;
59300;SDS011;45073;52.740;6.784;2023-09-12T08:14:46;53.05;;;46.88;;
59300;SDS011;45073;52.740;6.784;2023-09-12T08:17:12;49.25;;;43.85;;
59300;SDS011;45073;52.740;6.784;2023-09-12T08:19:38;51.70;;;44.80;;
59300;SDS011;45073;52.740;6.784;2023-09-12T08:22:05;50.42;;;44.28;;
59300;SDS011;45073;52.740;6.784;2023-09-12T08:24:32;47.40;;;42.15;;
59300;SDS011;45073;52.740;6.784;2023-09-12T08:26:58;50.53;;;43.75;;
59300;SDS011;45073;52.740;6.784;2023-09-12T08:29:24;47.67;;;42.30;;
59300;SDS011;45073;52.740;6.784;2023-09-12T08:31:50;47.35;;;42.20;;
59300;SDS011;45073;52.740;6.784;2023-09-12T08:34:16;48.60;;;41.75;;
59300;SDS011;45073;52.740;6.784;2023-09-12T08:36:41;49.05;;;43.45;;
59300;SDS011;45073;52.740;6.784;2023-09-12T08:39:11;44.22;;;39.53;;
59300;SDS011;45073;52.740;6.784;2023-09-12T08:41:38;46.13;;;41.22;;
59300;SDS011;45073;52.740;6.784;2023-09-12T08:44:04;46.90;;;41.53;;
59300;SDS011;45073;52.740;6.784;2023-09-12T08:46:30;46.38;;;41.38;;
59300;SDS011;45073;52.740;6.784;2023-09-12T08:48:56;40.33;;;36.22;;
59300;SDS011;45073;52.740;6.784;2023-09-12T08:51:23;38.10;;;33.97;;
59300;SDS011;45073;52.740;6.784;2023-09-12T08:53:49;38.05;;;34.10;;
59300;SDS011;45073;52.740;6.784;2023-09-12T08:56:16;40.58;;;36.08;;
59300;SDS011;45073;52.740;6.784;2023-09-12T08:58:43;35.08;;;31.58;;
59300;SDS011;45073;52.740;6.784;2023-09-12T09:01:09;32.75;;;29.25;;
59300;SDS011;45073;52.740;6.784;2023-09-12T09:03:41;35.38;;;31.73;;
59300;SDS011;45073;52.740;6.784;2023-09-12T09:06:09;38.63;;;34.53;;
59300;SDS011;45073;52.740;6.784;2023-09-12T09:08:35;38.25;;;34.25;;
59300;SDS011;45073;52.740;6.784;2023-09-12T09:11:03;38.00;;;34.00;;
59300;SDS011;45073;52.740;6.784;2023-09-12T09:13:30;36.47;;;32.75;;
59300;SDS011;45073;52.740;6.784;2023-09-12T09:16:15;38.33;;;34.45;;
59300;SDS011;45073;52.740;6.784;2023-09-12T09:18:52;34.70;;;31.15;;
59300;SDS011;45073;52.740;6.784;2023-09-12T09:23:53;36.42;;;32.33;;
59300;SDS011;45073;52.740;6.784;2023-09-12T09:26:20;36.33;;;32.47;;
59300;SDS011;45073;52.740;6.784;2023-09-12T09:29:01;36.33;;;32.63;;
59300;SDS011;45073;52.740;6.784;2023-09-12T09:31:31;36.95;;;33.22;;
59300;SDS011;45073;52.740;6.784;2023-09-12T09:33:58;37.55;;;33.75;;
59300;SDS011;45073;52.740;6.784;2023-09-12T09:36:24;39.67;;;35.67;;
59300;SDS011;45073;52.740;6.784;2023-09-12T09:38:50;37.95;;;34.15;;
59300;SDS011;45073;52.740;6.784;2023-09-12T09:41:19;35.97;;;32.38;;
59300;SDS011;45073;52.740;6.784;2023-09-12T09:43:46;36.08;;;32.45;;
59300;SDS011;45073;52.740;6.784;2023-09-12T09:46:15;37.05;;;33.15;;
59300;SDS011;45073;52.740;6.784;2023-09-12T09:48:48;36.28;;;32.60;;
59300;SDS011;45073;52.740;6.784;2023-09-12T09:53:39;38.00;;;34.00;;
59300;SDS011;45073;52.740;6.784;2023-09-12T09:56:12;38.60;;;34.65;;
59300;SDS011;45073;52.740;6.784;2023-09-12T09:58:48;38.30;;;34.33;;
59300;SDS011;45073;52.740;6.784;2023-09-12T10:01:27;39.00;;;34.92;;
59300;SDS011;45073;52.740;6.784;2023-09-12T10:03:57;36.53;;;32.83;;
59300;SDS011;45073;52.740;6.784;2023-09-12T10:06:24;38.42;;;34.60;;
59300;SDS011;45073;52.740;6.784;2023-09-12T10:08:52;39.17;;;35.30;;
59300;SDS011;45073;52.740;6.784;2023-09-12T10:11:18;38.17;;;34.38;;
59300;SDS011;45073;52.740;6.784;2023-09-12T10:13:51;39.53;;;35.73;;
59300;SDS011;45073;52.740;6.784;2023-09-12T10:16:20;38.50;;;34.70;;
59300;SDS011;45073;52.740;6.784;2023-09-12T10:18:59;36.08;;;32.58;;
59300;SDS011;45073;52.740;6.784;2023-09-12T10:21:32;35.75;;;32.10;;
59300;SDS011;45073;52.740;6.784;2023-09-12T10:24:00;35.67;;;32.05;;
59300;SDS011;45073;52.740;6.784;2023-09-12T10:26:29;37.17;;;33.47;;
59300;SDS011;45073;52.740;6.784;2023-09-12T10:28:56;37.05;;;33.20;;
59300;SDS011;45073;52.740;6.784;2023-09-12T10:31:24;37.03;;;33.30;;
59300;SDS011;45073;52.740;6.784;2023-09-12T10:33:51;35.00;;;31.50;;
59300;SDS011;45073;52.740;6.784;2023-09-12T10:36:19;35.22;;;31.73;;
59300;SDS011;45073;52.740;6.784;2023-09-12T10:38:46;34.25;;;30.85;;
59300;SDS011;45073;52.740;6.784;2023-09-12T10:41:13;33.08;;;29.58;;
59300;SDS011;45073;52.740;6.784;2023-09-12T10:43:40;33.72;;;30.40;;
59300;SDS011;45073;52.740;6.784;2023-09-12T10:46:08;33.90;;;30.40;;
59300;SDS011;45073;52.740;6.784;2023-09-12T10:48:37;31.88;;;28.73;;
59300;SDS011;45073;52.740;6.784;2023-09-12T10:51:05;33.88;;;30.48;;
59300;SDS011;45073;52.740;6.784;2023-09-12T10:53:32;32.75;;;29.45;;
59300;SDS011;45073;52.740;6.784;2023-09-12T10:58:33;35.83;;;29.02;;
59300;SDS011;45073;52.740;6.784;2023-09-12T11:01:41;31.88;;;28.67;;
59300;SDS011;45073;52.740;6.784;2023-09-12T11:06:49;33.40;;;30.08;;
59300;SDS011;45073;52.740;6.784;2023-09-12T11:09:21;32.25;;;29.15;;
59300;SDS011;45073;52.740;6.784;2023-09-12T11:11:48;30.52;;;27.52;;
59300;SDS011;45073;52.740;6.784;2023-09-12T11:14:19;33.63;;;29.98;;
59300;SDS011;45073;52.740;6.784;2023-09-12T11:19:45;30.15;;;27.05;;
59300;SDS011;45073;52.740;6.784;2023-09-12T11:22:36;32.17;;;28.98;;
59300;SDS011;45073;52.740;6.784;2023-09-12T11:25:04;28.45;;;25.52;;
59300;SDS011;45073;52.740;6.784;2023-09-12T11:30:17;28.65;;;25.73;;
59300;SDS011;45073;52.740;6.784;2023-09-12T11:32:46;26.17;;;23.30;;
59300;SDS011;45073;52.740;6.784;2023-09-12T11:35:15;25.88;;;23.17;;
59300;SDS011;45073;52.740;6.784;2023-09-12T11:37:57;25.40;;;22.70;;
59300;SDS011;45073;52.740;6.784;2023-09-12T11:40:25;24.10;;;21.50;;
59300;SDS011;45073;52.740;6.784;2023-09-12T11:42:58;24.05;;;21.23;;
59300;SDS011;45073;52.740;6.784;2023-09-12T11:45:23;23.95;;;21.45;;
59300;SDS011;45073;52.740;6.784;2023-09-12T11:47:50;26.40;;;23.65;;
59300;SDS011;45073;52.740;6.784;2023-09-12T11:50:26;26.55;;;23.83;;
59300;SDS011;45073;52.740;6.784;2023-09-12T11:53:01;25.70;;;23.10;;
59300;SDS011;45073;52.740;6.784;2023-09-12T11:55:34;25.65;;;23.15;;
59300;SDS011;45073;52.740;6.784;2023-09-12T11:58:11;26.02;;;23.25;;
59300;SDS011;45073;52.740;6.784;2023-09-12T12:00:50;26.63;;;23.92;;
59300;SDS011;45073;52.740;6.784;2023-09-12T12:03:18;26.27;;;23.67;;
59300;SDS011;45073;52.740;6.784;2023-09-12T12:05:45;26.27;;;23.58;;
59300;SDS011;45073;52.740;6.784;2023-09-12T12:08:12;24.05;;;21.48;;
59300;SDS011;45073;52.740;6.784;2023-09-12T12:10:38;26.30;;;22.98;;
59300;SDS011;45073;52.740;6.784;2023-09-12T12:13:05;23.98;;;21.50;;
59300;SDS011;45073;52.740;6.784;2023-09-12T12:15:31;24.80;;;22.13;;
59300;SDS011;45073;52.740;6.784;2023-09-12T12:17:58;24.48;;;21.75;;
59300;SDS011;45073;52.740;6.784;2023-09-12T12:20:23;21.58;;;19.38;;
59300;SDS011;45073;52.740;6.784;2023-09-12T12:22:49;23.67;;;21.17;;
59300;SDS011;45073;52.740;6.784;2023-09-12T12:25:17;24.30;;;21.90;;
59300;SDS011;45073;52.740;6.784;2023-09-12T12:27:43;23.23;;;20.95;;
59300;SDS011;45073;52.740;6.784;2023-09-12T12:30:10;23.90;;;21.40;;
59300;SDS011;45073;52.740;6.784;2023-09-12T12:32:40;22.63;;;20.23;;
59300;SDS011;45073;52.740;6.784;2023-09-12T12:35:18;23.38;;;20.88;;
59300;SDS011;45073;52.740;6.784;2023-09-12T12:37:45;23.38;;;21.00;;
59300;SDS011;45073;52.740;6.784;2023-09-12T12:40:12;21.90;;;19.77;;
59300;SDS011;45073;52.740;6.784;2023-09-12T12:42:38;22.10;;;18.75;;
59300;SDS011;45073;52.740;6.784;2023-09-12T12:47:39;21.52;;;19.38;;
59300;SDS011;45073;52.740;6.784;2023-09-12T12:50:12;19.75;;;17.58;;
59300;SDS011;45073;52.740;6.784;2023-09-12T12:52:42;19.80;;;17.10;;
59300;SDS011;45073;52.740;6.784;2023-09-12T12:55:11;20.77;;;17.92;;
59300;SDS011;45073;52.740;6.784;2023-09-12T12:57:38;19.92;;;17.17;;
59300;SDS011;45073;52.740;6.784;2023-09-12T13:00:15;21.60;;;17.08;;
59300;SDS011;45073;52.740;6.784;2023-09-12T13:02:43;22.17;;;16.95;;
59300;SDS011;45073;52.740;6.784;2023-09-12T13:05:28;18.83;;;16.92;;
59300;SDS011;45073;52.740;6.784;2023-09-12T13:07:58;20.27;;;16.00;;
59300;SDS011;45073;52.740;6.784;2023-09-12T13:10:23;18.38;;;16.17;;
59300;SDS011;45073;52.740;6.784;2023-09-12T13:12:49;17.10;;;15.30;;
59300;SDS011;45073;52.740;6.784;2023-09-12T13:15:15;20.30;;;17.55;;
59300;SDS011;45073;52.740;6.784;2023-09-12T13:17:42;19.70;;;16.50;;
59300;SDS011;45073;52.740;6.784;2023-09-12T13:20:09;17.05;;;14.60;;
59300;SDS011;45073;52.740;6.784;2023-09-12T13:22:35;17.38;;;15.43;;
59300;SDS011;45073;52.740;6.784;2023-09-12T13:25:01;16.40;;;14.70;;
59300;SDS011;45073;52.740;6.784;2023-09-12T13:27:27;18.20;;;15.95;;
59300;SDS011;45073;52.740;6.784;2023-09-12T13:29:54;18.45;;;14.73;;
59300;SDS011;45073;52.740;6.784;2023-09-12T13:32:19;14.10;;;12.05;;
59300;SDS011;45073;52.740;6.784;2023-09-12T13:34:45;20.02;;;14.40;;
59300;SDS011;45073;52.740;6.784;2023-09-12T13:37:10;11.45;;;8.60;;
59300;SDS011;45073;52.740;6.784;2023-09-12T13:39:36;11.40;;;9.23;;
59300;SDS011;45073;52.740;6.784;2023-09-12T13:42:02;12.35;;;8.82;;
59300;SDS011;45073;52.740;6.784;2023-09-12T13:44:29;12.98;;;9.93;;
59300;SDS011;45073;52.740;6.784;2023-09-12T13:46:55;14.25;;;11.20;;
59300;SDS011;45073;52.740;6.784;2023-09-12T13:49:21;13.02;;;10.27;;
59300;SDS011;45073;52.740;6.784;2023-09-12T13:51:46;17.83;;;13.13;;
59300;SDS011;45073;52.740;6.784;2023-09-12T13:54:12;12.75;;;10.50;;
59300;SDS011;45073;52.740;6.784;2023-09-12T13:56:39;13.15;;;10.35;;
59300;SDS011;45073;52.740;6.784;2023-09-12T13:59:05;15.45;;;12.18;;
59300;SDS011;45073;52.740;6.784;2023-09-12T14:01:31;13.55;;;10.00;;
59300;SDS011;45073;52.740;6.784;2023-09-12T14:03:57;12.85;;;9.30;;
59300;SDS011;45073;52.740;6.784;2023-09-12T14:06:23;11.40;;;8.05;;
59300;SDS011;45073;52.740;6.784;2023-09-12T14:08:48;10.23;;;7.53;;
59300;SDS011;45073;52.740;6.784;2023-09-12T14:11:14;10.02;;;6.88;;
59300;SDS011;45073;52.740;6.784;2023-09-12T14:13:40;11.35;;;8.50;;
59300;SDS011;45073;52.740;6.784;2023-09-12T14:16:05;11.70;;;8.50;;
59300;SDS011;45073;52.740;6.784;2023-09-12T14:18:31;11.68;;;8.35;;
59300;SDS011;45073;52.740;6.784;2023-09-12T14:20:56;12.45;;;8.95;;
59300;SDS011;45073;52.740;6.784;2023-09-12T14:23:22;11.73;;;9.00;;
59300;SDS011;45073;52.740;6.784;2023-09-12T14:25:48;12.10;;;8.75;;
59300;SDS011;45073;52.740;6.784;2023-09-12T14:28:13;12.65;;;9.80;;
59300;SDS011;45073;52.740;6.784;2023-09-12T14:30:39;11.85;;;9.25;;
59300;SDS011;45073;52.740;6.784;2023-09-12T14:33:10;12.40;;;8.98;;
59300;SDS011;45073;52.740;6.784;2023-09-12T14:35:36;13.38;;;8.63;;
59300;SDS011;45073;52.740;6.784;2023-09-12T14:38:02;11.85;;;9.15;;
59300;SDS011;45073;52.740;6.784;2023-09-12T14:40:29;12.57;;;9.75;;
59300;SDS011;45073;52.740;6.784;2023-09-12T14:42:55;12.15;;;10.45;;
59300;SDS011;45073;52.740;6.784;2023-09-12T14:45:20;14.20;;;11.02;;